createdAt,value
2018-12-30T00:02:17.654Z,27.33
2018-12-30T00:04:45.005Z,27.73
2018-12-30T00:07:12.857Z,29.77
2018-12-30T00:09:40.727Z,30.43
2018-12-30T00:12:07.957Z,30.07
2018-12-30T00:14:35.281Z,28.63
2018-12-30T00:17:02.633Z,25.90
2018-12-30T00:19:29.953Z,29.50
2018-12-30T00:21:57.332Z,29.63
2018-12-30T00:24:25.063Z,29.90
2018-12-30T00:26:52.428Z,27.97
2018-12-30T00:29:20.049Z,28.40
2018-12-30T00:31:47.615Z,30.33
2018-12-30T00:34:15.264Z,28.10
2018-12-30T00:36:42.949Z,29.13
2018-12-30T00:39:10.584Z,29.47
2018-12-30T00:41:37.940Z,28.67
2018-12-30T00:44:05.171Z,28.67
2018-12-30T00:46:33.893Z,30.00
2018-12-30T00:49:01.244Z,29.37
2018-12-30T00:51:28.607Z,28.13
2018-12-30T00:53:56.245Z,29.13
2018-12-30T00:56:23.917Z,30.20
2018-12-30T00:58:51.289Z,28.13
2018-12-30T01:01:18.625Z,26.60
2018-12-30T01:03:47.090Z,28.27
2018-12-30T01:06:14.509Z,28.53
2018-12-30T01:08:41.841Z,29.33
2018-12-30T01:11:09.197Z,29.50
2018-12-30T01:13:36.525Z,29.07
2018-12-30T01:16:03.889Z,29.23
2018-12-30T01:18:31.537Z,29.53
2018-12-30T01:20:58.884Z,28.53
2018-12-30T01:23:26.228Z,29.20
2018-12-30T01:25:53.795Z,27.47
2018-12-30T01:28:21.121Z,29.47
2018-12-30T01:30:48.817Z,29.67
2018-12-30T01:33:16.133Z,27.20
2018-12-30T01:35:43.489Z,29.77
2018-12-30T01:38:11.073Z,28.37
2018-12-30T01:40:38.629Z,28.43
2018-12-30T01:43:05.957Z,29.93
2018-12-30T01:45:33.304Z,26.67
2018-12-30T01:48:00.633Z,28.50
2018-12-30T01:50:28.266Z,28.40
2018-12-30T01:52:55.617Z,28.97
2018-12-30T01:55:23.052Z,28.63
2018-12-30T01:57:50.649Z,28.97
2018-12-30T02:00:17.982Z,29.17
2018-12-30T02:02:45.649Z,27.77
2018-12-30T02:05:17.310Z,30.03
2018-12-30T02:07:44.645Z,28.80
2018-12-30T02:10:11.973Z,29.83
2018-12-30T02:12:39.312Z,31.87
2018-12-30T02:15:06.641Z,29.17
2018-12-30T02:17:33.993Z,31.40
2018-12-30T02:20:01.235Z,30.27
2018-12-30T02:22:28.993Z,29.60
2018-12-30T02:24:56.224Z,30.97
2018-12-30T02:27:23.667Z,31.03
2018-12-30T02:29:50.993Z,29.83
2018-12-30T02:32:18.353Z,30.80
2018-12-30T02:34:45.686Z,30.87
2018-12-30T02:37:13.137Z,31.13
2018-12-30T02:39:40.460Z,29.57
2018-12-30T02:42:07.717Z,30.13
2018-12-30T02:44:35.056Z,29.80
2018-12-30T02:47:02.416Z,29.27
2018-12-30T02:49:30.077Z,30.10
2018-12-30T02:51:57.646Z,30.67
2018-12-30T02:54:24.976Z,30.57
2018-12-30T02:56:52.343Z,29.70
2018-12-30T02:59:20.019Z,30.40
2018-12-30T03:01:47.376Z,30.37
2018-12-30T03:04:14.911Z,32.60
2018-12-30T03:06:42.274Z,33.23
2018-12-30T03:09:09.507Z,30.47
2018-12-30T03:11:37.196Z,30.17
2018-12-30T03:14:04.453Z,31.47
2018-12-30T03:16:32.413Z,31.57
2018-12-30T03:18:59.669Z,30.27
2018-12-30T03:21:27.318Z,30.43
2018-12-30T03:23:54.668Z,31.47
2018-12-30T03:26:21.898Z,30.70
2018-12-30T03:28:49.801Z,31.47
2018-12-30T03:31:17.029Z,30.70
2018-12-30T03:33:44.614Z,29.10
2018-12-30T03:36:11.853Z,28.80
2018-12-30T03:38:39.131Z,29.57
2018-12-30T03:41:06.353Z,29.33
2018-12-30T03:43:33.610Z,30.83
2018-12-30T03:46:00.829Z,30.80
2018-12-30T03:48:28.085Z,30.57
2018-12-30T03:50:55.596Z,31.60
2018-12-30T03:53:22.847Z,31.83
2018-12-30T03:55:50.078Z,28.50
2018-12-30T03:58:17.641Z,30.40
2018-12-30T04:00:44.865Z,31.30
2018-12-30T04:03:12.478Z,31.17
2018-12-30T04:05:39.701Z,29.67
2018-12-30T04:08:06.956Z,30.60
2018-12-30T04:10:34.517Z,29.43
2018-12-30T04:13:01.766Z,30.40
2018-12-30T04:15:28.993Z,30.57
2018-12-30T04:17:56.260Z,31.13
2018-12-30T04:20:23.486Z,29.47
2018-12-30T04:22:51.082Z,30.13
2018-12-30T04:25:18.313Z,30.50
2018-12-30T04:27:45.542Z,32.33
2018-12-30T04:30:13.080Z,31.50
2018-12-30T04:32:40.591Z,31.60
2018-12-30T04:35:14.657Z,31.23
2018-12-30T04:38:27.362Z,31.27
2018-12-30T04:41:11.229Z,30.23
2018-12-30T04:43:50.876Z,32.10
2018-12-30T04:46:44.015Z,31.63
2018-12-30T04:49:20.371Z,31.13
2018-12-30T04:52:44.689Z,28.03
2018-12-30T04:54:25.605Z,27.53
2018-12-30T04:56:52.834Z,29.30
2018-12-30T04:59:20.513Z,30.27
2018-12-30T05:01:47.749Z,28.27
2018-12-30T05:04:15.002Z,31.33
2018-12-30T05:06:42.550Z,31.10
2018-12-30T05:09:10.145Z,28.30
2018-12-30T05:11:37.393Z,29.13
2018-12-30T05:14:05.245Z,26.73
2018-12-30T05:16:32.902Z,28.37
2018-12-30T05:19:00.236Z,27.80
2018-12-30T05:21:27.810Z,26.63
2018-12-30T05:23:55.069Z,27.93
2018-12-30T05:26:22.294Z,28.60
2018-12-30T05:28:49.551Z,29.77
2018-12-30T05:31:17.121Z,29.07
2018-12-30T05:33:44.998Z,28.10
2018-12-30T05:36:12.227Z,30.43
2018-12-30T05:38:39.829Z,31.10
2018-12-30T05:41:07.322Z,31.00
2018-12-30T05:43:34.684Z,30.40
2018-12-30T05:46:02.281Z,31.23
2018-12-30T05:48:29.505Z,31.20
2018-12-30T05:50:56.761Z,32.13
2018-12-30T05:53:24.197Z,30.93
2018-12-30T05:55:51.445Z,30.87
2018-12-30T05:58:19.069Z,32.37
2018-12-30T06:00:46.334Z,31.37
2018-12-30T06:03:13.561Z,30.50
2018-12-30T06:05:41.029Z,29.17
2018-12-30T06:08:08.256Z,29.73
2018-12-30T06:10:35.481Z,30.43
2018-12-30T06:13:03.304Z,29.07
2018-12-30T06:15:30.557Z,30.70
2018-12-30T06:17:58.088Z,29.93
2018-12-30T06:20:25.657Z,28.60
2018-12-30T06:22:53.536Z,28.13
2018-12-30T06:25:21.073Z,29.93
2018-12-30T06:27:48.300Z,29.77
2018-12-30T06:30:15.569Z,28.90
2018-12-30T06:32:42.808Z,30.20
2018-12-30T06:35:10.065Z,30.37
2018-12-30T06:37:37.628Z,28.17
2018-12-30T06:40:11.298Z,29.37
2018-12-30T06:42:34.454Z,27.93
2018-12-30T06:45:01.713Z,29.03
2018-12-30T06:47:28.944Z,28.63
2018-12-30T06:49:56.288Z,27.77
2018-12-30T06:52:23.524Z,29.53
2018-12-30T06:54:50.961Z,26.10
2018-12-30T06:57:18.189Z,26.60
2018-12-30T06:59:45.972Z,27.43
2018-12-30T07:02:13.536Z,27.43
2018-12-30T07:04:40.788Z,28.37
2018-12-30T07:07:08.009Z,27.17
2018-12-30T07:09:35.241Z,27.23
2018-12-30T07:12:02.491Z,27.80
2018-12-30T07:14:29.707Z,26.57
2018-12-30T07:16:56.970Z,26.03
2018-12-30T07:19:24.521Z,27.50
2018-12-30T07:21:51.780Z,27.37
2018-12-30T07:24:19.325Z,28.17
2018-12-30T07:26:46.581Z,25.77
2018-12-30T07:29:13.912Z,27.60
2018-12-30T07:31:41.580Z,26.20
2018-12-30T07:34:08.813Z,25.43
2018-12-30T07:36:36.710Z,24.23
2018-12-30T07:39:05.549Z,24.30
2018-12-30T07:41:32.825Z,26.03
2018-12-30T07:44:00.388Z,25.80
2018-12-30T07:46:27.656Z,25.60
2018-12-30T07:48:54.880Z,27.53
2018-12-30T07:51:22.169Z,25.73
2018-12-30T07:53:49.601Z,27.70
2018-12-30T07:56:16.861Z,25.10
2018-12-30T07:58:44.093Z,25.90
2018-12-30T08:01:11.709Z,25.27
2018-12-30T08:03:38.933Z,25.13
2018-12-30T08:06:06.182Z,24.00
2018-12-30T08:08:33.408Z,25.33
2018-12-30T08:11:00.680Z,22.57
2018-12-30T08:13:28.252Z,23.77
2018-12-30T08:15:55.797Z,24.27
2018-12-30T08:18:23.022Z,23.73
2018-12-30T08:20:50.293Z,23.63
2018-12-30T08:23:21.420Z,23.97
2018-12-30T08:25:46.976Z,25.07
2018-12-30T08:28:14.814Z,23.00
2018-12-30T08:30:42.365Z,23.13
2018-12-30T08:33:09.942Z,22.27
2018-12-30T08:35:37.179Z,23.10
2018-12-30T08:38:04.544Z,23.53
2018-12-30T08:40:31.801Z,22.57
2018-12-30T08:42:59.354Z,21.73
2018-12-30T08:45:26.937Z,22.20
2018-12-30T08:47:54.201Z,21.27
2018-12-30T08:50:21.526Z,22.80
2018-12-30T08:52:49.081Z,22.90
2018-12-30T08:55:16.325Z,22.03
2018-12-30T08:57:43.593Z,19.83
2018-12-30T09:00:11.145Z,20.90
2018-12-30T09:02:38.422Z,18.50
2018-12-30T09:05:05.983Z,18.27
2018-12-30T09:07:33.558Z,18.73
2018-12-30T09:10:00.894Z,18.80
2018-12-30T09:12:28.149Z,16.60
2018-12-30T09:14:55.677Z,16.37
2018-12-30T09:17:23.013Z,17.77
2018-12-30T09:19:50.248Z,18.23
2018-12-30T09:22:17.397Z,17.20
2018-12-30T09:24:44.988Z,15.47
2018-12-30T09:27:12.649Z,16.13
2018-12-30T09:29:39.864Z,16.83
2018-12-30T09:32:07.146Z,16.00
2018-12-30T09:34:34.553Z,16.83
2018-12-30T09:37:01.816Z,17.93
2018-12-30T09:39:29.318Z,16.63
2018-12-30T09:41:56.684Z,17.50
2018-12-30T09:44:24.145Z,17.47
2018-12-30T09:46:51.392Z,17.37
2018-12-30T09:49:18.528Z,16.70
2018-12-30T09:51:46.109Z,17.27
2018-12-30T09:54:13.344Z,17.43
2018-12-30T09:56:40.601Z,17.00
2018-12-30T09:59:07.820Z,17.87
2018-12-30T10:01:35.406Z,17.77
2018-12-30T10:04:02.673Z,18.80
2018-12-30T10:06:31.526Z,18.40
2018-12-30T10:09:00.917Z,18.20
2018-12-30T10:11:28.136Z,17.80
2018-12-30T10:13:56.092Z,17.03
2018-12-30T10:16:23.653Z,17.17
2018-12-30T10:18:51.227Z,17.20
2018-12-30T10:21:18.457Z,17.37
2018-12-30T10:23:52.750Z,17.53
2018-12-30T10:26:15.144Z,16.77
2018-12-30T10:28:42.725Z,17.03
2018-12-30T10:31:10.313Z,17.63
2018-12-30T10:33:37.875Z,18.13
2018-12-30T10:36:05.105Z,18.63
2018-12-30T10:38:32.470Z,19.10
2018-12-30T10:40:59.761Z,20.13
2018-12-30T10:43:27.014Z,18.63
2018-12-30T10:45:54.336Z,19.13
2018-12-30T10:48:21.605Z,18.20
2018-12-30T10:50:48.836Z,18.00
2018-12-30T10:53:16.392Z,19.30
2018-12-30T10:55:45.727Z,18.30
2018-12-30T10:58:13.102Z,18.80
2018-12-30T11:00:40.632Z,19.47
2018-12-30T11:03:08.057Z,19.50
2018-12-30T11:05:35.441Z,19.67
2018-12-30T11:08:03.085Z,17.87
2018-12-30T11:10:30.210Z,18.07
2018-12-30T11:12:57.483Z,18.50
2018-12-30T11:15:25.141Z,19.70
2018-12-30T11:17:52.724Z,19.67
2018-12-30T11:20:19.945Z,24.10
2018-12-30T11:22:47.217Z,22.30
2018-12-30T11:25:14.451Z,21.60
2018-12-30T11:27:41.709Z,19.87
2018-12-30T11:30:08.945Z,19.57
2018-12-30T11:32:36.628Z,19.57
2018-12-30T11:35:04.241Z,18.07
2018-12-30T11:37:31.537Z,18.73
2018-12-30T11:39:58.778Z,18.87
2018-12-30T11:42:26.449Z,18.10
2018-12-30T11:44:53.742Z,16.80
2018-12-30T11:47:21.258Z,18.60
2018-12-30T11:49:48.834Z,17.43
2018-12-30T11:52:16.069Z,17.30
2018-12-30T11:54:43.789Z,17.50
2018-12-30T11:57:11.121Z,17.23
2018-12-30T11:59:38.385Z,17.10
2018-12-30T12:02:05.893Z,16.53
2018-12-30T12:04:33.472Z,16.83
2018-12-30T12:07:00.707Z,18.17
2018-12-30T12:09:27.969Z,17.83
2018-12-30T12:11:55.201Z,17.13
2018-12-30T12:14:22.475Z,17.10
2018-12-30T12:16:50.021Z,17.77
2018-12-30T12:19:17.592Z,17.93
2018-12-30T12:21:44.821Z,16.57
2018-12-30T12:24:12.392Z,16.00
2018-12-30T12:26:39.637Z,16.37
2018-12-30T12:29:07.009Z,17.17
2018-12-30T12:31:34.334Z,16.80
2018-12-30T12:34:01.909Z,17.10
2018-12-30T12:36:29.175Z,17.37
2018-12-30T12:38:56.721Z,16.93
2018-12-30T12:41:24.077Z,16.83
2018-12-30T12:43:51.636Z,18.50
2018-12-30T12:46:18.765Z,19.83
2018-12-30T12:48:46.038Z,17.87
2018-12-30T12:51:13.260Z,16.77
2018-12-30T12:53:40.529Z,15.83
2018-12-30T12:56:07.761Z,17.33
2018-12-30T12:58:35.017Z,16.53
2018-12-30T13:01:02.347Z,16.17
2018-12-30T13:03:29.580Z,16.57
2018-12-30T13:05:56.845Z,20.13
2018-12-30T13:08:24.359Z,16.90
2018-12-30T13:10:51.916Z,19.67
2018-12-30T13:13:19.459Z,15.93
2018-12-30T13:15:46.729Z,15.57
2018-12-30T13:18:13.955Z,15.53
2018-12-30T13:20:41.234Z,17.07
2018-12-30T13:23:08.796Z,29.43
2018-12-30T13:25:36.065Z,21.07
2018-12-30T13:28:03.294Z,16.43
2018-12-30T13:30:30.561Z,15.90
2018-12-30T13:32:57.789Z,16.67
2018-12-30T13:35:25.194Z,25.53
2018-12-30T13:37:52.426Z,19.40
2018-12-30T13:40:20.331Z,19.37
2018-12-30T13:42:47.739Z,17.43
2018-12-30T13:45:15.089Z,17.80
2018-12-30T13:47:42.321Z,16.07
2018-12-30T13:50:09.589Z,16.80
2018-12-30T13:52:37.141Z,16.07
2018-12-30T13:55:04.703Z,16.60
2018-12-30T13:57:32.029Z,15.20
2018-12-30T13:59:59.299Z,14.50
2018-12-30T14:02:26.668Z,14.10
2018-12-30T14:04:53.936Z,15.03
2018-12-30T14:07:21.165Z,15.50
2018-12-30T14:09:48.420Z,16.10
2018-12-30T14:12:15.645Z,19.83
2018-12-30T14:14:43.264Z,12.40
2018-12-30T14:17:10.565Z,12.83
2018-12-30T14:19:37.851Z,13.37
2018-12-30T14:22:05.082Z,14.23
2018-12-30T14:24:32.352Z,14.47
2018-12-30T14:27:00.206Z,14.00
2018-12-30T14:29:27.561Z,12.43
2018-12-30T14:31:54.787Z,12.40
2018-12-30T14:34:22.365Z,17.03
2018-12-30T14:36:49.548Z,13.40
2018-12-30T14:39:16.830Z,13.30
2018-12-30T14:41:44.058Z,15.90
2018-12-30T14:44:11.406Z,17.33
2018-12-30T14:46:38.713Z,14.67
2018-12-30T14:49:06.389Z,13.20
2018-12-30T14:51:33.629Z,14.53
2018-12-30T14:54:00.893Z,13.47
2018-12-30T14:56:28.441Z,13.07
2018-12-30T14:58:55.700Z,13.17
2018-12-30T15:01:22.945Z,13.27
2018-12-30T15:03:50.519Z,14.20
2018-12-30T15:06:18.012Z,16.53
2018-12-30T15:08:45.191Z,38.83
2018-12-30T15:11:12.886Z,18.73
2018-12-30T15:13:40.445Z,17.90
2018-12-30T15:16:08.061Z,25.30
2018-12-30T15:18:35.341Z,19.40
2018-12-30T15:21:02.730Z,17.07
2018-12-30T15:23:30.491Z,15.97
2018-12-30T15:25:57.822Z,16.10
2018-12-30T15:28:25.493Z,19.43
2018-12-30T15:30:52.838Z,15.87
2018-12-30T15:33:20.823Z,16.53
2018-12-30T15:35:48.147Z,16.60
2018-12-30T15:38:15.754Z,16.20
2018-12-30T15:40:43.123Z,15.13
2018-12-30T15:43:10.414Z,15.50
2018-12-30T15:45:37.750Z,15.23
2018-12-30T15:48:05.766Z,16.03
2018-12-30T15:50:32.919Z,14.93
2018-12-30T15:53:00.205Z,14.87
2018-12-30T15:55:27.442Z,16.00
2018-12-30T15:57:54.708Z,16.13
2018-12-30T16:00:22.328Z,17.27
2018-12-30T16:02:49.972Z,17.27
2018-12-30T16:05:17.295Z,16.17
2018-12-30T16:07:44.910Z,17.37
2018-12-30T16:10:12.146Z,18.30
2018-12-30T16:12:39.714Z,18.07
2018-12-30T16:15:07.747Z,19.23
2018-12-30T16:17:35.440Z,18.07
2018-12-30T16:20:02.886Z,19.77
2018-12-30T16:22:32.242Z,19.03
2018-12-30T16:24:59.505Z,19.00
2018-12-30T16:27:26.780Z,19.90
2018-12-30T16:29:54.020Z,20.63
2018-12-30T16:32:21.297Z,21.23
2018-12-30T16:34:48.559Z,21.77
2018-12-30T16:37:17.273Z,18.87
2018-12-30T16:39:44.585Z,18.13
2018-12-30T16:42:11.853Z,17.87
2018-12-30T16:44:39.409Z,17.83
2018-12-30T16:47:06.677Z,17.43
2018-12-30T16:49:39.322Z,18.03
2018-12-30T16:52:08.696Z,18.17
2018-12-30T16:54:38.415Z,17.90
2018-12-30T16:57:05.857Z,17.00
2018-12-30T16:59:33.480Z,18.13
2018-12-30T17:02:00.894Z,18.37
2018-12-30T17:04:28.132Z,19.23
2018-12-30T17:06:55.701Z,20.27
2018-12-30T17:09:22.930Z,19.03
2018-12-30T17:11:50.557Z,18.10
2018-12-30T17:14:17.886Z,19.03
2018-12-30T17:16:45.237Z,19.97
2018-12-30T17:19:12.531Z,20.90
2018-12-30T17:21:40.091Z,21.07
2018-12-30T17:24:07.673Z,20.50
2018-12-30T17:26:34.933Z,18.97
2018-12-30T17:29:02.541Z,19.30
2018-12-30T17:31:29.910Z,19.60
2018-12-30T17:33:57.457Z,20.20
2018-12-30T17:36:24.605Z,21.80
2018-12-30T17:38:52.157Z,19.93
2018-12-30T17:41:19.717Z,20.83
2018-12-30T17:43:47.310Z,21.37
2018-12-30T17:46:18.361Z,21.30
2018-12-30T17:48:43.701Z,23.43
2018-12-30T17:51:10.936Z,23.60
2018-12-30T17:53:38.601Z,24.97
2018-12-30T17:56:07.295Z,32.70
2018-12-30T17:58:35.585Z,33.77
2018-12-30T18:01:02.809Z,27.30
2018-12-30T18:03:30.469Z,26.43
2018-12-30T18:05:57.969Z,33.37
2018-12-30T18:08:25.242Z,26.30
2018-12-30T18:10:52.573Z,28.57
2018-12-30T18:13:19.825Z,25.93
2018-12-30T18:15:47.069Z,23.20
2018-12-30T18:18:14.344Z,23.37
2018-12-30T18:20:41.981Z,25.43
2018-12-30T18:23:11.308Z,25.13
2018-12-30T18:25:38.548Z,28.03
2018-12-30T18:28:05.814Z,24.47
2018-12-30T18:30:33.356Z,26.93
2018-12-30T18:33:00.920Z,27.13
2018-12-30T18:35:28.482Z,23.23
2018-12-30T18:37:56.033Z,22.00
2018-12-30T18:40:23.264Z,23.53
2018-12-30T18:42:50.536Z,25.20
2018-12-30T18:45:20.776Z,23.23
2018-12-30T18:47:48.133Z,23.53
2018-12-30T18:50:15.673Z,25.17
2018-12-30T18:52:42.900Z,25.23
2018-12-30T18:55:10.485Z,23.53
2018-12-30T18:57:37.704Z,26.00
2018-12-30T19:00:06.977Z,25.40
2018-12-30T19:02:34.212Z,25.37
2018-12-30T19:05:01.504Z,26.83
2018-12-30T19:07:28.737Z,27.33
2018-12-30T19:09:56.002Z,27.07
2018-12-30T19:12:23.226Z,26.10
2018-12-30T19:14:50.496Z,27.37
2018-12-30T19:17:17.728Z,28.07
2018-12-30T19:19:44.994Z,25.73
2018-12-30T19:22:12.221Z,27.27
2018-12-30T19:24:39.481Z,27.90
2018-12-30T19:27:06.727Z,27.80
2018-12-30T19:29:34.261Z,26.53
2018-12-30T19:32:01.830Z,27.27
2018-12-30T19:34:29.093Z,26.87
2018-12-30T19:36:56.957Z,26.60
2018-12-30T19:39:24.424Z,27.23
2018-12-30T19:41:51.873Z,27.83
2018-12-30T19:44:19.753Z,26.27
2018-12-30T19:46:47.359Z,26.63
2018-12-30T19:49:14.641Z,27.73
2018-12-30T19:51:41.876Z,28.20
2018-12-30T19:54:09.240Z,31.27
2018-12-30T19:56:36.906Z,27.50
2018-12-30T19:59:04.254Z,27.50
2018-12-30T20:01:39.079Z,27.60
2018-12-30T20:04:13.165Z,27.33
2018-12-30T20:06:40.858Z,26.83
2018-12-30T20:09:08.416Z,35.23
2018-12-30T20:11:37.310Z,29.17
2018-12-30T20:14:04.573Z,29.30
2018-12-30T20:16:32.122Z,28.50
2018-12-30T20:18:59.893Z,32.60
2018-12-30T20:21:27.227Z,35.07
2018-12-30T20:23:54.997Z,30.00
2018-12-30T20:26:29.619Z,28.37
2018-12-30T20:28:51.413Z,29.23
2018-12-30T20:31:18.762Z,29.93
2018-12-30T20:33:46.385Z,29.30
2018-12-30T20:36:13.789Z,27.47
2018-12-30T20:38:41.058Z,29.47
2018-12-30T20:41:08.526Z,29.03
2018-12-30T20:43:36.118Z,27.43
2018-12-30T20:46:03.408Z,29.93
2018-12-30T20:48:30.655Z,29.60
2018-12-30T20:50:57.949Z,29.57
2018-12-30T20:53:25.789Z,29.33
2018-12-30T20:55:53.156Z,28.63
2018-12-30T20:58:20.722Z,29.13
2018-12-30T21:00:47.986Z,27.53
2018-12-30T21:03:15.317Z,26.73
2018-12-30T21:05:42.889Z,27.63
2018-12-30T21:08:10.553Z,26.80
2018-12-30T21:10:37.822Z,27.77
2018-12-30T21:13:05.162Z,27.70
2018-12-30T21:15:32.438Z,26.80
2018-12-30T21:17:59.673Z,27.67
2018-12-30T21:20:26.937Z,28.33
2018-12-30T21:22:54.185Z,30.60
2018-12-30T21:25:21.525Z,27.50
2018-12-30T21:27:48.752Z,28.37
2018-12-30T21:30:16.367Z,28.13
2018-12-30T21:32:43.665Z,27.73
2018-12-30T21:35:10.834Z,28.20
2018-12-30T21:37:38.073Z,28.83
2018-12-30T21:40:06.269Z,27.73
2018-12-30T21:42:33.605Z,27.80
2018-12-30T21:45:04.131Z,25.97
2018-12-30T21:47:31.825Z,24.20
2018-12-30T21:49:59.090Z,26.13
2018-12-30T21:52:26.308Z,25.30
2018-12-30T21:54:53.569Z,27.03
2018-12-30T21:57:21.129Z,27.57
2018-12-30T21:59:48.448Z,24.83
2018-12-30T22:02:15.982Z,24.73
2018-12-30T22:04:43.322Z,26.07
2018-12-30T22:07:10.582Z,25.63
2018-12-30T22:09:37.821Z,26.93
2018-12-30T22:12:05.471Z,27.53
2018-12-30T22:14:33.008Z,25.77
2018-12-30T22:17:00.269Z,26.60
2018-12-30T22:19:27.508Z,24.43
2018-12-30T22:21:55.188Z,22.73
2018-12-30T22:24:22.829Z,24.30
2018-12-30T22:26:50.097Z,22.80
2018-12-30T22:29:17.641Z,25.10
2018-12-30T22:31:44.897Z,23.27
2018-12-30T22:34:12.130Z,25.97
2018-12-30T22:36:39.388Z,22.17
2018-12-30T22:39:07.887Z,20.47
2018-12-30T22:41:35.229Z,22.87
2018-12-30T22:44:02.558Z,20.93
2018-12-30T22:46:29.823Z,21.23
2018-12-30T22:48:57.052Z,21.63
2018-12-30T22:51:24.650Z,21.27
2018-12-30T22:53:51.897Z,20.77
2018-12-30T22:56:19.225Z,19.90
2018-12-30T22:58:46.713Z,19.13
2018-12-30T23:01:17.733Z,21.87
2018-12-30T23:03:45.067Z,21.07
2018-12-30T23:06:12.424Z,18.93
2018-12-30T23:08:39.945Z,17.40
2018-12-30T23:11:07.212Z,18.47
2018-12-30T23:13:34.526Z,20.87
2018-12-30T23:16:01.785Z,19.77
2018-12-30T23:18:29.029Z,20.13
2018-12-30T23:20:56.357Z,21.27
2018-12-30T23:23:23.645Z,18.10
2018-12-30T23:25:51.190Z,21.73
2018-12-30T23:28:18.444Z,20.53
2018-12-30T23:30:46.002Z,21.33
2018-12-30T23:33:13.353Z,19.60
2018-12-30T23:35:40.581Z,17.47
2018-12-30T23:38:07.728Z,19.10
2018-12-30T23:40:35.335Z,20.33
2018-12-30T23:43:02.672Z,20.13
2018-12-30T23:45:30.469Z,22.07
2018-12-30T23:47:57.833Z,20.83
2018-12-30T23:50:25.156Z,21.67
2018-12-30T23:52:52.535Z,21.37
2018-12-30T23:55:20.157Z,21.43
2018-12-30T23:57:47.741Z,23.27
